Time;durP1;ratioP1;P1;durP2;ratioP2;P2;SDS_P1;SDS_P2;PMS_P1;PMS_P2;Temp;Humidity;BMP_temperature;BMP_pressure;BME280_temperature;BME280_humidity;BME280_pressure;Samples;Min_cycle;Max_cycle;Signal;HPM_P1;HPM_P2
2022/06/22 00:01:11;;;;;;;19.95;12.38;;;19.00;93.50;;;;;;4959277;28;20051;-69
2022/06/22 00:03:40;;;;;;;15.50;12.25;;;19.00;92.90;;;;;;4974659;28;20382;-69
2022/06/22 00:06:08;;;;;;;19.42;13.55;;;19.00;92.50;;;;;;4955168;28;20047;-67
2022/06/22 00:08:37;;;;;;;17.55;12.98;;;18.90;92.50;;;;;;4966508;28;20031;-67
2022/06/22 00:11:04;;;;;;;16.23;12.80;;;18.90;93.00;;;;;;4988770;28;20031;-69
2022/06/22 00:13:32;;;;;;;19.77;13.32;;;18.80;92.40;;;;;;4963493;28;20077;-69
2022/06/22 00:16:01;;;;;;;16.40;12.32;;;18.70;91.80;;;;;;4970661;28;20034;-68
2022/06/22 00:18:39;;;;;;;20.02;13.05;;;18.70;91.90;;;;;;4952660;28;20403;-68
2022/06/22 00:21:15;;;;;;;16.95;11.88;;;18.70;91.70;;;;;;4954474;28;20038;-67
2022/06/22 00:23:44;;;;;;;21.35;14.25;;;18.70;91.50;;;;;;4958868;28;20034;-69
2022/06/22 00:26:25;;;;;;;17.17;13.45;;;18.70;91.20;;;;;;4965370;28;20030;-68
2022/06/22 00:29:00;;;;;;;18.77;13.70;;;18.80;91.00;;;;;;4965878;28;20031;-69
2022/06/22 00:31:40;;;;;;;17.83;13.57;;;18.70;91.20;;;;;;4965528;28;20059;-68
2022/06/22 00:34:11;;;;;;;18.25;13.18;;;18.60;91.50;;;;;;4957584;28;20416;-68
2022/06/22 00:36:40;;;;;;;18.67;12.75;;;18.60;91.80;;;;;;4960610;28;20035;-68
2022/06/22 00:39:28;;;;;;;15.85;13.40;;;18.60;91.70;;;;;;4955713;28;20438;-67
2022/06/22 00:42:14;;;;;;;15.18;11.68;;;18.50;92.00;;;;;;4970094;28;20039;-68
2022/06/22 00:44:48;;;;;;;18.33;12.98;;;18.50;91.60;;;;;;4957549;28;20026;-69
2022/06/22 00:47:38;;;;;;;17.20;12.93;;;18.50;91.40;;;;;;4968771;28;20038;-68
2022/06/22 00:50:12;;;;;;;17.98;12.93;;;18.50;91.40;;;;;;4958231;28;20416;-69
2022/06/22 00:52:43;;;;;;;;;;;18.50;91.20;;;;;;4971688;28;20141;-68
2022/06/22 00:55:47;;;;;;;19.95;12.77;;;18.70;92.40;;;;;;4961611;28;19925;-69
2022/06/22 00:58:29;;;;;;;17.98;13.07;;;18.80;92.80;;;;;;4961633;28;20043;-68
2022/06/22 01:01:06;;;;;;;17.77;12.25;;;18.90;93.00;;;;;;4962087;28;20080;-69
2022/06/22 01:03:47;;;;;;;17.30;12.88;;;18.90;93.10;;;;;;4960275;28;20427;-69
2022/06/22 01:06:48;;;;;;;18.10;13.32;;;19.00;92.90;;;;;;4955925;28;20034;-69
2022/06/22 01:09:39;;;;;;;16.20;13.00;;;19.00;92.60;;;;;;4955275;28;20055;-68
2022/06/22 01:12:17;;;;;;;17.70;11.48;;;19.00;92.50;;;;;;4970795;28;20031;-68
2022/06/22 01:14:53;;;;;;;16.05;12.40;;;18.90;92.60;;;;;;4955607;28;20054;-68
2022/06/22 01:17:51;;;;;;;14.68;11.85;;;18.70;92.40;;;;;;4956517;28;20034;-69
2022/06/22 01:20:35;;;;;;;16.83;12.60;;;18.60;92.00;;;;;;4955528;28;20031;-68
2022/06/22 01:23:22;;;;;;;17.15;12.82;;;18.50;91.40;;;;;;4978019;28;20328;-68
2022/06/22 01:26:40;;;;;;;17.55;13.23;;;18.40;91.00;;;;;;4962714;28;20031;-68
2022/06/22 01:29:13;;;;;;;16.92;13.50;;;18.40;90.60;;;;;;4956556;28;20053;-68
2022/06/22 01:31:44;;;;;;;17.85;13.27;;;18.40;90.00;;;;;;4963045;28;20551;-69
2022/06/22 01:34:17;;;;;;;16.70;12.00;;;18.40;89.70;;;;;;4955984;28;20117;-69
2022/06/22 01:36:43;;;;;;;16.45;12.32;;;18.50;90.20;;;;;;4959735;28;20069;-69
2022/06/22 01:39:12;;;;;;;17.10;11.50;;;18.50;90.30;;;;;;4963118;28;20327;-68
2022/06/22 01:41:47;;;;;;;13.95;12.35;;;18.50;90.60;;;;;;4960900;28;20245;-68
2022/06/22 01:44:19;;;;;;;18.73;12.60;;;18.60;90.80;;;;;;4962122;28;20028;-68
2022/06/22 01:47:15;;;;;;;15.90;13.07;;;18.60;90.50;;;;;;4960125;28;20432;-68
2022/06/22 01:50:04;;;;;;;16.88;13.15;;;18.50;90.40;;;;;;4956741;28;20088;-68
2022/06/22 01:52:49;;;;;;;16.77;12.50;;;18.50;90.30;;;;;;4972871;28;20039;-69
2022/06/22 01:55:24;;;;;;;;;;;18.50;90.10;;;;;;4961513;28;20353;-68
2022/06/22 01:58:06;;;;;;;16.67;12.63;;;18.60;90.20;;;;;;4957274;28;19914;-68
2022/06/22 02:00:32;;;;;;;15.95;11.15;;;18.50;90.20;;;;;;4960070;28;20030;-68
2022/06/22 02:03:12;;;;;;;16.02;12.55;;;18.50;90.10;;;;;;4968926;28;20031;-68
2022/06/22 02:05:55;;;;;;;17.65;12.07;;;18.50;90.00;;;;;;4964516;28;20042;-68
2022/06/22 02:08:26;;;;;;;17.13;13.80;;;18.50;90.40;;;;;;4962252;28;20133;-69
2022/06/22 02:11:33;;;;;;;15.25;11.60;;;18.50;90.20;;;;;;4963788;28;20039;-68
2022/06/22 02:14:10;;;;;;;17.92;12.70;;;18.40;90.10;;;;;;4974497;28;20420;-68
2022/06/22 02:16:52;;;;;;;16.98;12.20;;;18.40;90.50;;;;;;4973209;28;20070;-68
2022/06/22 02:19:20;;;;;;;17.40;13.57;;;18.40;90.20;;;;;;4970669;28;20122;-68
2022/06/22 02:21:54;;;;;;;16.33;12.25;;;18.40;90.50;;;;;;4959972;28;20031;-68
2022/06/22 02:24:36;;;;;;;16.80;11.95;;;18.40;90.40;;;;;;4965918;28;20039;-69
2022/06/22 02:27:13;;;;;;;16.25;12.18;;;18.40;90.50;;;;;;4961314;28;20085;-69
2022/06/22 02:30:02;;;;;;;17.02;12.52;;;18.40;90.40;;;;;;4961736;28;20039;-68
2022/06/22 02:32:33;;;;;;;17.30;12.55;;;18.40;90.50;;;;;;4962257;28;20070;-68
2022/06/22 02:34:59;;;;;;;16.02;12.35;;;18.30;90.00;;;;;;4976074;28;20027;-68
2022/06/22 02:37:29;;;;;;;17.33;13.70;;;18.30;90.00;;;;;;4963724;28;20055;-68
2022/06/22 02:39:59;;;;;;;15.90;13.07;;;18.30;90.00;;;;;;4973790;28;20119;-68
2022/06/22 02:45:12;;;;;;;18.75;12.38;;;18.30;89.50;;;;;;4960021;28;20115;-68
2022/06/22 02:47:54;;;;;;;16.00;12.98;;;18.30;89.60;;;;;;4958336;28;20019;-69
2022/06/22 02:50:34;;;;;;;16.35;11.82;;;18.20;89.50;;;;;;4983590;28;20024;-68
2022/06/22 02:53:24;;;;;;;15.15;12.55;;;18.20;88.80;;;;;;4962357;28;20106;-69
2022/06/22 02:55:52;;;;;;;24.15;13.70;;;18.20;89.50;;;;;;4965517;28;20137;-69
2022/06/22 02:58:32;;;;;;;13.75;11.68;;;18.20;88.80;;;;;;4958067;28;20048;-68
2022/06/22 03:01:10;;;;;;;14.60;12.43;;;18.30;89.30;;;;;;4966221;28;20023;-69
2022/06/22 03:03:38;;;;;;;17.83;13.30;;;18.20;89.50;;;;;;4969168;28;20443;-68
2022/06/22 03:06:09;;;;;;;15.27;12.85;;;18.20;89.70;;;;;;4962445;28;20104;-69
2022/06/22 03:08:36;;;;;;;16.10;13.10;;;18.20;90.00;;;;;;4983351;28;20436;-69
2022/06/22 03:11:05;;;;;;;18.05;13.38;;;18.20;90.00;;;;;;4966894;28;20373;-68
2022/06/22 03:13:38;;;;;;;15.23;12.93;;;18.10;89.80;;;;;;4968699;28;20043;-68
2022/06/22 03:16:07;;;;;;;19.40;14.03;;;18.00;89.30;;;;;;4964120;28;20019;-68
2022/06/22 03:18:37;;;;;;;18.55;13.38;;;18.00;89.20;;;;;;4963803;28;20120;-69
2022/06/22 03:21:07;;;;;;;16.95;12.15;;;18.00;89.00;;;;;;4954655;28;20023;-69
2022/06/22 03:23:50;;;;;;;16.98;13.40;;;18.00;89.10;;;;;;4961647;28;20398;-68
2022/06/22 03:26:36;;;;;;;17.23;13.93;;;18.10;89.50;;;;;;4960221;28;20027;-69
2022/06/22 03:29:10;;;;;;;17.27;13.77;;;18.00;89.30;;;;;;4978637;28;20543;-69
2022/06/22 03:31:47;;;;;;;17.48;13.07;;;18.00;89.20;;;;;;4961462;28;20115;-68
2022/06/22 03:34:22;;;;;;;17.83;13.52;;;18.00;89.20;;;;;;4964458;28;20432;-68
2022/06/22 03:37:01;;;;;;;15.52;13.50;;;18.00;89.10;;;;;;4970444;28;20039;-68
2022/06/22 03:39:33;;;;;;;16.77;13.95;;;18.00;88.80;;;;;;4973153;28;20043;-68
2022/06/22 03:42:10;;;;;;;15.73;12.25;;;18.10;88.90;;;;;;4962786;28;20027;-68
2022/06/22 03:44:42;;;;;;;16.30;12.60;;;18.10;89.30;;;;;;4958967;28;20031;-68
2022/06/22 03:47:15;;;;;;;17.55;12.65;;;18.10;89.40;;;;;;4960069;28;20053;-68
2022/06/22 03:49:49;;;;;;;17.92;13.93;;;18.10;90.00;;;;;;4967968;28;20099;-69
2022/06/22 03:52:20;;;;;;;15.63;12.52;;;18.10;90.20;;;;;;4968703;28;20037;-68
2022/06/22 03:54:53;;;;;;;17.48;12.05;;;18.20;90.20;;;;;;4963190;28;20031;-68
2022/06/22 03:57:24;;;;;;;15.70;12.65;;;18.30;91.00;;;;;;4958771;28;20074;-69
2022/06/22 03:59:50;;;;;;;17.75;11.43;;;18.40;91.40;;;;;;4962329;28;20786;-68
2022/06/22 04:02:19;;;;;;;15.75;10.20;;;18.50;91.90;;;;;;4981011;28;20020;-68
2022/06/22 04:04:51;;;;;;;13.82;9.05;;;18.50;93.20;;;;;;4965044;28;20027;-69
2022/06/22 04:07:17;;;;;;;15.32;10.02;;;18.70;94.00;;;;;;4966667;28;20023;-69
2022/06/22 04:09:53;;;;;;;16.63;8.80;;;18.80;94.40;;;;;;4962978;28;20366;-67
2022/06/22 04:12:18;;;;;;;11.57;8.70;;;18.90;94.60;;;;;;4968527;28;20031;-69
2022/06/22 04:15:03;;;;;;;10.85;8.20;;;19.00;94.70;;;;;;4977574;28;20031;-69
2022/06/22 04:17:38;;;;;;;13.93;8.55;;;19.00;95.00;;;;;;4964175;28;20038;-69
2022/06/22 04:20:24;;;;;;;13.15;8.18;;;19.00;95.00;;;;;;4968323;28;20042;-69
2022/06/22 04:22:54;;;;;;;12.38;8.40;;;19.10;95.40;;;;;;4971845;28;20091;-69
2022/06/22 04:25:39;;;;;;;15.85;7.97;;;19.10;96.00;;;;;;4968697;28;20039;-69
2022/06/22 04:28:09;;;;;;;13.20;7.20;;;19.10;96.40;;;;;;4965606;28;20034;-68
2022/06/22 04:30:42;;;;;;;15.60;9.35;;;19.20;96.20;;;;;;4980570;28;20027;-68
2022/06/22 04:33:28;;;;;;;14.15;7.53;;;19.10;95.30;;;;;;4966276;28;20035;-68
2022/06/22 04:36:19;;;;;;;14.07;8.25;;;19.10;96.20;;;;;;4965146;28;20073;-69
2022/06/22 04:38:53;;;;;;;14.65;7.90;;;19.10;95.50;;;;;;4968318;28;20095;-68
2022/06/22 04:41:33;;;;;;;13.57;7.85;;;19.10;95.20;;;;;;4960421;28;20362;-69
2022/06/22 04:44:02;;;;;;;13.55;6.65;;;19.00;95.20;;;;;;4972246;28;20300;-68
2022/06/22 04:46:34;;;;;;;14.30;7.45;;;19.10;95.30;;;;;;4962406;28;20088;-68
2022/06/22 04:49:25;;;;;;;12.90;6.93;;;19.10;95.40;;;;;;4961648;28;20031;-69
2022/06/22 04:51:57;;;;;;;11.13;7.07;;;19.20;95.80;;;;;;4966188;28;20049;-68
2022/06/22 04:54:34;;;;;;;12.82;6.90;;;19.20;95.90;;;;;;4974926;28;20031;-68
2022/06/22 04:57:14;;;;;;;12.15;6.75;;;19.30;96.70;;;;;;4962999;28;20027;-69
2022/06/22 04:59:41;;;;;;;11.07;5.80;;;19.50;96.80;;;;;;4972305;28;20027;-69
2022/06/22 05:02:11;;;;;;;13.90;6.13;;;19.70;97.30;;;;;;4967875;28;20027;-69
2022/06/22 05:04:44;;;;;;;10.55;5.72;;;19.90;97.20;;;;;;4971693;28;20031;-69
2022/06/22 05:07:38;;;;;;;11.52;5.93;;;20.10;97.40;;;;;;4971648;28;20039;-69
2022/06/22 05:10:13;;;;;;;11.85;5.90;;;20.30;97.00;;;;;;4970158;28;20039;-68
2022/06/22 05:13:05;;;;;;;10.65;5.47;;;20.60;96.40;;;;;;4978305;28;20435;-69
2022/06/22 05:15:37;;;;;;;12.85;5.50;;;21.00;95.70;;;;;;4976213;28;20120;-69
2022/06/22 05:18:10;;;;;;;12.90;6.53;;;21.30;95.70;;;;;;4966140;28;20031;-69
2022/06/22 05:20:48;;;;;;;9.48;5.50;;;21.60;95.60;;;;;;4956517;28;20031;-69
2022/06/22 05:23:14;;;;;;;15.57;6.53;;;21.80;94.40;;;;;;4969497;28;20440;-69
2022/06/22 05:25:42;;;;;;;11.38;6.15;;;21.80;92.40;;;;;;4968516;28;20050;-69
2022/06/22 05:28:17;;;;;;;11.20;5.95;;;22.00;91.30;;;;;;5018948;28;20046;-69
2022/06/22 05:30:49;;;;;;;12.63;6.20;;;22.10;90.80;;;;;;4958761;28;20027;-69
2022/06/22 05:33:19;;;;;;;9.30;5.22;;;22.20;90.50;;;;;;4956932;28;20046;-69
2022/06/22 05:35:55;;;;;;;11.65;6.03;;;22.40;89.40;;;;;;4975243;28;20035;-69
2022/06/22 05:38:23;;;;;;;7.82;5.35;;;22.40;89.20;;;;;;4975768;28;20058;-69
2022/06/22 05:40:51;;;;;;;14.40;6.75;;;22.30;89.10;;;;;;4974676;28;20057;-69
2022/06/22 05:43:17;;;;;;;11.05;6.30;;;22.30;89.40;;;;;;4972097;28;20027;-69
2022/06/22 05:45:54;;;;;;;10.63;6.32;;;22.30;90.10;;;;;;4957698;28;20034;-68
2022/06/22 05:48:23;;;;;;;14.93;7.18;;;22.20;90.50;;;;;;4961107;28;20485;-68
2022/06/22 05:51:02;;;;;;;11.63;7.35;;;21.80;93.70;;;;;;4954835;28;20027;-68
2022/06/22 05:53:44;;;;;;;13.02;7.82;;;21.30;94.90;;;;;;4976393;28;20042;-68
2022/06/22 05:56:33;;;;;;;13.10;8.07;;;20.90;95.60;;;;;;4977286;28;20032;-70
2022/06/22 05:59:22;;;;;;;15.48;7.40;;;20.40;95.80;;;;;;4974485;28;20031;-72
2022/06/22 06:02:16;;;;;;;14.70;5.68;;;19.50;96.20;;;;;;4957448;28;20046;-70
2022/06/22 06:05:25;;;;;;;16.83;6.67;;;18.70;95.40;;;;;;4962822;28;20593;-69
2022/06/22 06:07:54;;;;;;;19.55;5.88;;;18.30;94.90;;;;;;4951415;28;20059;-69
2022/06/22 06:10:27;;;;;;;16.15;6.78;;;18.10;93.90;;;;;;4950233;28;20108;-69
2022/06/22 06:13:14;;;;;;;12.30;6.22;;;18.00;93.10;;;;;;4952128;28;20038;-70
2022/06/22 06:15:40;;;;;;;16.00;5.85;;;17.90;94.00;;;;;;4952808;28;21892;-70
2022/06/22 06:18:13;;;;;;;13.48;5.85;;;17.90;93.80;;;;;;4954048;28;20024;-69
2022/06/22 06:20:42;;;;;;;14.50;6.60;;;17.90;92.30;;;;;;4950062;28;20031;-69
2022/06/22 06:23:33;;;;;;;16.55;7.38;;;17.90;91.20;;;;;;4954012;28;20482;-69
2022/06/22 06:28:57;;;;;;;16.17;6.22;;;18.00;91.10;;;;;;4950202;28;20098;-69
2022/06/22 06:31:33;;;;;;;12.23;6.28;;;18.00;90.80;;;;;;4950584;28;21369;-69
2022/06/22 06:34:02;;;;;;;14.82;6.05;;;18.10;89.80;;;;;;4955705;28;20432;-86
2022/06/22 06:36:37;;;;;;;15.27;6.20;;;18.20;90.70;;;;;;4947758;28;20463;-69
2022/06/22 06:39:09;;;;;;;15.00;6.53;;;18.30;90.20;;;;;;4949265;28;20131;-69
2022/06/22 06:42:08;;;;;;;14.52;5.95;;;18.40;90.00;;;;;;4954399;28;20038;-69
2022/06/22 06:44:42;;;;;;;14.63;5.35;;;18.50;90.60;;;;;;4949193;28;20024;-68
2022/06/22 06:47:19;;;;;;;14.95;6.75;;;18.80;92.30;;;;;;4951698;28;20026;-68
2022/06/22 06:49:50;;;;;;;15.20;6.35;;;18.90;91.50;;;;;;4954757;28;20046;-68
2022/06/22 06:52:33;;;;;;;13.75;6.75;;;18.90;92.10;;;;;;4949196;28;20404;-68
2022/06/22 06:55:25;;;;;;;16.23;6.20;;;18.80;93.10;;;;;;4963586;28;20038;-67
2022/06/22 06:58:30;;;;;;;17.88;7.07;;;18.80;94.10;;;;;;4948333;28;20046;-69
2022/06/22 07:00:56;;;;;;;15.05;6.25;;;18.90;92.00;;;;;;4953004;28;20128;-69
2022/06/22 07:03:27;;;;;;;15.30;5.80;;;19.10;94.40;;;;;;4949462;28;20089;-69
2022/06/22 07:05:53;;;;;;;13.57;6.28;;;19.20;94.80;;;;;;4948914;28;20031;-69
2022/06/22 07:08:29;;;;;;;17.40;6.20;;;19.20;95.40;;;;;;4951995;28;20039;-69
2022/06/22 07:11:07;;;;;;;17.42;6.65;;;19.40;95.20;;;;;;4948541;28;20493;-69
2022/06/22 07:13:44;;;;;;;15.55;6.60;;;19.50;96.60;;;;;;4949459;28;20069;-69
2022/06/22 07:16:19;;;;;;;11.57;5.82;;;19.60;96.70;;;;;;4948761;28;20040;-69
2022/06/22 07:18:52;;;;;;;16.23;6.85;;;19.80;96.30;;;;;;4948985;28;20113;-69
2022/06/22 07:21:42;;;;;;;13.52;6.93;;;20.10;96.50;;;;;;4950039;28;20026;-69
2022/06/22 07:24:18;;;;;;;13.57;8.00;;;20.40;96.30;;;;;;4966951;28;20027;-68
2022/06/22 07:27:06;;;;;;;17.52;9.25;;;20.80;96.90;;;;;;4975247;28;20039;-68
2022/06/22 07:29:45;;;;;;;14.05;7.55;;;21.20;97.30;;;;;;4974177;28;20077;-68
2022/06/22 07:32:44;;;;;;;17.05;7.43;;;21.60;96.70;;;;;;4974600;28;20110;-69
2022/06/22 07:35:24;;;;;;;14.93;6.70;;;21.90;96.30;;;;;;4974571;28;20042;-68
2022/06/22 07:38:20;;;;;;;16.63;6.65;;;22.00;96.40;;;;;;4973173;28;20088;-69
2022/06/22 07:43:32;;;;;;;18.00;7.90;;;22.00;96.20;;;;;;4956042;28;20030;-68
2022/06/22 07:45:58;;;;;;;15.68;7.90;;;21.60;96.10;;;;;;4956015;28;20150;-68
2022/06/22 07:48:25;;;;;;;13.60;7.20;;;21.40;96.40;;;;;;4957952;28;20125;-68
2022/06/22 07:50:55;;;;;;;15.57;8.07;;;21.30;96.50;;;;;;4973791;28;20304;-69
2022/06/22 07:53:51;;;;;;;17.20;8.52;;;21.30;97.10;;;;;;4970882;28;20055;-68
2022/06/22 07:56:34;;;;;;;11.85;7.72;;;21.10;96.20;;;;;;4970671;28;20042;-68
2022/06/22 07:59:26;;;;;;;18.50;8.75;;;20.80;96.40;;;;;;4973625;28;20080;-68
2022/06/22 08:01:56;;;;;;;15.90;8.65;;;20.70;96.30;;;;;;4974881;28;20719;-68
2022/06/22 08:04:59;;;;;;;11.75;8.02;;;20.60;96.40;;;;;;4966729;28;20334;-69
2022/06/22 08:07:33;;;;;;;14.05;9.77;;;20.50;95.60;;;;;;4978304;28;20035;-68
2022/06/22 08:10:06;;;;;;;14.65;9.88;;;20.40;96.30;;;;;;4968993;28;20030;-68
2022/06/22 08:12:40;;;;;;;19.40;11.38;;;20.30;95.50;;;;;;4964394;28;20027;-69
2022/06/22 08:15:12;;;;;;;14.02;10.63;;;20.30;94.80;;;;;;5052628;28;20029;-68
2022/06/22 08:17:50;;;;;;;16.10;10.95;;;20.30;95.70;;;;;;5076123;28;20021;-68
2022/06/22 08:20:28;;;;;;;14.60;10.35;;;20.30;95.20;;;;;;4974337;28;20030;-68
2022/06/22 08:22:57;;;;;;;14.20;10.48;;;20.40;95.10;;;;;;4973698;28;20037;-68
2022/06/22 08:25:23;;;;;;;13.40;9.65;;;20.50;94.50;;;;;;4972881;28;20106;-68
2022/06/22 08:27:52;;;;;;;13.82;10.00;;;20.70;94.60;;;;;;4972887;28;20106;-68
2022/06/22 08:30:19;;;;;;;16.13;9.48;;;21.00;95.20;;;;;;4955280;28;20293;-68
2022/06/22 08:33:05;;;;;;;13.68;9.45;;;21.10;96.90;;;;;;4957031;28;20035;-68
2022/06/22 08:35:45;;;;;;;12.85;8.98;;;21.20;96.40;;;;;;4984770;28;20023;-69
2022/06/22 08:38:13;;;;;;;16.08;9.00;;;21.30;97.20;;;;;;5058871;28;20526;-68
2022/06/22 08:41:08;;;;;;;11.88;8.10;;;21.50;96.40;;;;;;4955288;28;20025;-68
2022/06/22 08:43:48;;;;;;;12.23;8.45;;;21.70;96.60;;;;;;4954931;28;20039;-68
2022/06/22 08:47:07;;;;;;;14.95;8.30;;;22.00;96.70;;;;;;4954047;29;20479;-68
2022/06/22 08:49:44;;;;;;;14.40;8.30;;;22.20;95.60;;;;;;5031099;28;20033;-68
2022/06/22 08:52:46;;;;;;;13.93;6.90;;;22.50;95.20;;;;;;4962817;28;20124;-68
2022/06/22 08:55:48;;;;;;;11.05;6.30;;;22.80;93.20;;;;;;4979966;28;20030;-68
2022/06/22 08:58:38;;;;;;;13.55;6.70;;;23.30;91.10;;;;;;5032045;28;20111;-68
2022/06/22 09:01:39;;;;;;;14.27;6.95;;;23.70;91.00;;;;;;4968634;28;20035;-68
2022/06/22 09:04:26;;;;;;;8.20;5.47;;;24.10;90.20;;;;;;4976893;28;20063;-68
2022/06/22 09:07:16;;;;;;;11.13;6.00;;;24.40;91.20;;;;;;4954082;28;20126;-68
2022/06/22 09:10:03;;;;;;;13.98;6.57;;;24.80;89.50;;;;;;4956792;28;20066;-68
2022/06/22 09:12:44;;;;;;;13.43;5.60;;;24.90;89.00;;;;;;4954673;28;20020;-68
2022/06/22 09:15:22;;;;;;;11.95;5.65;;;24.90;85.90;;;;;;4954586;28;20030;-68
2022/06/22 09:18:06;;;;;;;8.35;5.10;;;25.20;86.10;;;;;;4958544;28;20424;-68
2022/06/22 09:21:05;;;;;;;10.25;5.05;;;25.50;83.50;;;;;;4965415;28;20113;-68
2022/06/22 09:23:57;;;;;;;10.10;4.60;;;25.80;82.90;;;;;;4970686;28;20104;-68
2022/06/22 09:26:28;;;;;;;11.63;5.60;;;25.70;82.20;;;;;;4954270;28;20032;-68
2022/06/22 09:29:21;;;;;;;12.52;6.07;;;25.90;82.30;;;;;;4983171;28;20105;-68
2022/06/22 09:32:26;;;;;;;17.52;5.68;;;26.20;81.30;;;;;;4969552;28;20057;-68
2022/06/22 09:35:10;;;;;;;18.98;5.28;;;25.60;81.20;;;;;;4965371;28;20036;-68
2022/06/22 09:37:45;;;;;;;13.80;6.43;;;25.10;82.90;;;;;;4968282;28;20027;-68
2022/06/22 09:40:10;;;;;;;8.40;4.60;;;24.70;84.10;;;;;;5069542;28;20044;-68
2022/06/22 09:43:03;;;;;;;9.88;5.07;;;24.90;84.10;;;;;;5019058;28;20311;-68
2022/06/22 09:45:54;;;;;;;13.40;5.45;;;24.90;84.00;;;;;;4954262;28;20308;-68
2022/06/22 09:48:57;;;;;;;15.35;6.30;;;25.00;82.90;;;;;;4967430;28;20042;-68
2022/06/22 09:51:45;;;;;;;12.38;5.70;;;24.70;84.90;;;;;;4972314;28;20023;-68
2022/06/22 09:57:20;;;;;;;10.02;6.22;;;23.70;86.80;;;;;;5029499;28;20331;-69
2022/06/22 10:00:07;;;;;;;10.55;6.05;;;22.90;89.60;;;;;;4991543;28;20035;-69
2022/06/22 10:02:54;;;;;;;14.80;6.80;;;22.30;91.20;;;;;;4974734;28;20515;-68
2022/06/22 10:05:51;;;;;;;10.57;6.15;;;22.00;92.30;;;;;;4974216;28;20066;-68
2022/06/22 10:08:39;;;;;;;16.10;7.60;;;21.90;93.40;;;;;;4936435;28;20332;-68
2022/06/22 10:11:31;;;;;;;14.48;6.20;;;21.70;94.70;;;;;;4974659;28;20120;-68
2022/06/22 10:14:12;;;;;;;11.50;6.68;;;21.40;94.90;;;;;;4958442;28;20035;-68
2022/06/22 10:16:49;;;;;;;14.52;6.22;;;21.30;95.00;;;;;;4969220;28;20110;-68
2022/06/22 10:19:14;;;;;;;14.55;6.80;;;21.50;94.70;;;;;;4959198;28;20661;-68
2022/06/22 10:22:21;;;;;;;13.23;6.20;;;21.40;94.30;;;;;;4974603;28;20038;-68
2022/06/22 10:25:08;;;;;;;13.65;5.55;;;21.20;94.40;;;;;;4995726;28;20043;-69
2022/06/22 10:28:06;;;;;;;13.23;5.22;;;21.00;94.30;;;;;;4951170;28;20034;-69
2022/06/22 10:31:03;;;;;;;11.55;5.85;;;20.70;94.90;;;;;;4992198;28;20104;-69
2022/06/22 10:33:59;;;;;;;12.70;5.53;;;20.40;95.90;;;;;;5068563;28;20032;-69
2022/06/22 10:36:31;;;;;;;12.68;5.00;;;20.10;95.90;;;;;;4968121;28;20443;-69
2022/06/22 10:39:08;;;;;;;10.15;4.97;;;19.90;96.30;;;;;;4966452;28;20051;-69
2022/06/22 10:47:43;;;;;;;10.73;5.43;;;19.70;95.70;;;;;;4956837;28;20046;-68
2022/06/22 10:50:15;;;;;;;11.95;5.53;;;19.60;96.40;;;;;;4962322;28;20030;-69
2022/06/22 10:52:59;;;;;;;14.02;6.63;;;19.60;95.40;;;;;;4972386;28;20118;-69
2022/06/22 10:55:42;;;;;;;17.63;5.95;;;19.50;95.90;;;;;;4970035;28;20581;-69
2022/06/22 10:58:28;;;;;;;16.33;5.93;;;19.60;97.30;;;;;;4959488;28;20032;-69
2022/06/22 11:01:13;;;;;;;14.20;5.72;;;19.60;96.60;;;;;;4956469;28;20015;-68
2022/06/22 11:04:06;;;;;;;14.27;4.95;;;19.80;96.80;;;;;;4965556;28;20023;-69
2022/06/22 11:06:50;;;;;;;13.10;4.38;;;20.10;96.50;;;;;;4974659;28;20109;-69
2022/06/22 11:09:45;;;;;;;13.52;4.78;;;20.30;96.90;;;;;;4974721;28;20034;-69
2022/06/22 11:12:13;;;;;;;;;;;20.50;96.30;;;;;;4992102;28;20043;-69
2022/06/22 11:14:45;;;;;;;17.75;4.85;;;20.50;96.20;;;;;;4956512;28;19911;-69
2022/06/22 11:17:21;;;;;;;19.08;4.75;;;20.60;96.50;;;;;;4956232;28;20362;-69
2022/06/22 11:20:11;;;;;;;16.77;4.53;;;20.70;96.00;;;;;;4956129;28;20470;-69
2022/06/22 11:22:42;;;;;;;11.75;3.67;;;20.70;96.10;;;;;;4955513;28;20038;-69
2022/06/22 11:30:48;;;;;;;19.38;4.65;;;20.80;96.30;;;;;;4974348;28;20319;-69
2022/06/22 11:31:37;;;;;;;15.93;4.60;;;21.70;94.50;;;;;;4975640;28;20232;-69
2022/06/22 11:34:28;;;;;;;16.13;4.32;;;22.20;94.40;;;;;;4974687;28;20023;-69
2022/06/22 11:36:59;;;;;;;10.88;4.18;;;22.70;93.90;;;;;;4974188;28;20362;-69
2022/06/22 11:39:34;;;;;;;17.30;4.47;;;23.00;94.10;;;;;;4975213;28;20047;-69
2022/06/22 11:42:17;;;;;;;12.43;4.38;;;23.40;92.80;;;;;;4975436;28;20083;-69
2022/06/22 11:48:01;;;;;;;17.42;4.88;;;23.40;92.80;;;;;;4973377;28;20451;-69
2022/06/22 11:50:48;;;;;;;16.60;4.13;;;23.60;90.70;;;;;;4975034;28;20407;-69
2022/06/22 11:53:38;;;;;;;15.75;4.45;;;23.40;93.20;;;;;;4974713;28;20418;-68
2022/06/22 11:56:45;;;;;;;14.02;4.07;;;23.50;92.90;;;;;;4975065;28;20030;-69
2022/06/22 11:59:32;;;;;;;13.45;3.88;;;23.50;92.00;;;;;;4973638;28;20031;-69
2022/06/22 12:02:19;;;;;;;12.50;3.80;;;23.50;92.40;;;;;;4973270;28;20113;-69
2022/06/22 12:05:13;;;;;;;18.98;4.95;;;23.30;93.80;;;;;;4968271;28;20346;-70
2022/06/22 12:08:12;;;;;;;15.15;4.43;;;23.00;94.30;;;;;;4973656;28;20031;-69
2022/06/22 12:10:53;;;;;;;19.48;4.40;;;23.10;95.60;;;;;;4974966;28;20031;-69
2022/06/22 12:13:36;;;;;;;16.25;4.18;;;22.90;94.50;;;;;;4974766;28;20033;-69
2022/06/22 12:16:22;;;;;;;16.90;3.90;;;22.90;93.00;;;;;;4974627;28;20319;-69
2022/06/22 12:19:05;;;;;;;19.60;4.05;;;23.20;91.80;;;;;;4957671;28;20039;-69
2022/06/22 12:21:59;;;;;;;18.08;5.38;;;23.30;90.10;;;;;;4954258;28;20463;-69
2022/06/22 12:24:48;;;;;;;16.67;4.05;;;23.60;88.10;;;;;;4955239;28;20023;-69
2022/06/22 12:27:25;;;;;;;15.05;4.13;;;23.80;88.50;;;;;;4970586;28;20038;-69
2022/06/22 12:30:28;;;;;;;20.38;4.13;;;23.80;86.10;;;;;;4974228;28;20419;-68
2022/06/22 12:33:31;;;;;;;15.75;3.97;;;24.20;83.20;;;;;;4948622;28;20096;-68
2022/06/22 12:36:03;;;;;;;24.40;3.97;;;24.90;82.50;;;;;;4983056;28;20043;-68
2022/06/22 12:39:04;;;;;;;20.58;4.32;;;25.60;81.50;;;;;;4972308;28;20180;-68
2022/06/22 12:41:52;;;;;;;19.13;4.30;;;26.70;77.70;;;;;;4970099;28;20400;-68
2022/06/22 12:44:47;;;;;;;16.50;4.03;;;28.00;75.10;;;;;;4970780;28;20027;-68
2022/06/22 12:47:31;;;;;;;15.10;3.75;;;28.80;72.70;;;;;;4970275;28;20030;-70
2022/06/22 12:50:21;;;;;;;17.92;3.53;;;29.20;71.80;;;;;;4973022;28;20485;-70
2022/06/22 12:52:53;;;;;;;15.43;3.83;;;28.90;72.00;;;;;;4971955;28;20031;-70
2022/06/22 12:55:29;;;;;;;22.55;4.15;;;28.30;72.60;;;;;;4973908;28;20050;-69
2022/06/22 12:58:27;;;;;;;18.65;3.47;;;27.60;72.40;;;;;;4974231;28;20031;-69
2022/06/22 13:00:58;;;;;;;19.77;3.90;;;27.10;73.10;;;;;;4973641;28;20027;-69
2022/06/22 13:03:32;;;;;;;16.38;3.75;;;27.10;74.70;;;;;;4973486;28;20030;-69
2022/06/22 13:05:58;;;;;;;17.05;3.78;;;26.90;75.10;;;;;;4971622;28;20019;-69
2022/06/22 13:08:27;;;;;;;15.57;3.50;;;26.90;75.30;;;;;;4972654;28;20033;-69
2022/06/22 13:11:00;;;;;;;16.50;4.20;;;26.40;78.00;;;;;;4972755;28;20033;-69
2022/06/22 13:13:47;;;;;;;18.08;3.85;;;26.00;79.00;;;;;;4972856;28;20027;-68
2022/06/22 13:16:34;;;;;;;21.48;5.00;;;26.00;80.50;;;;;;4972037;28;20027;-69
2022/06/22 13:19:18;;;;;;;19.30;4.25;;;26.00;80.70;;;;;;4964860;28;20719;-68
2022/06/22 13:21:47;;;;;;;;;;;26.30;81.50;;;;;;4970278;28;20049;-68
2022/06/22 13:24:39;;;;;;;23.23;6.38;;;26.70;78.30;;;;;;4971616;28;19906;-69
2022/06/22 13:27:11;;;;;;;22.40;4.85;;;27.00;80.00;;;;;;4972552;28;20162;-69
2022/06/22 13:29:51;;;;;;;23.05;4.85;;;27.30;76.70;;;;;;4972371;28;20381;-68
2022/06/22 13:32:18;;;;;;;17.67;4.68;;;27.50;75.90;;;;;;4996981;28;20327;-67
2022/06/22 13:34:52;;;;;;;22.95;5.30;;;27.80;76.70;;;;;;4976315;28;20018;-69
2022/06/22 13:37:46;;;;;;;17.08;3.83;;;28.20;74.20;;;;;;4972625;28;20441;-68
2022/06/22 13:40:26;;;;;;;20.27;4.55;;;29.00;71.90;;;;;;4975585;28;20046;-69
2022/06/22 13:43:26;;;;;;;18.77;4.20;;;29.00;71.20;;;;;;4975898;28;20090;-68
2022/06/22 13:46:16;;;;;;;21.77;4.72;;;29.10;72.50;;;;;;4975404;28;20042;-67
2022/06/22 13:48:45;;;;;;;23.02;4.72;;;29.50;70.40;;;;;;4975583;28;20022;-68
2022/06/22 13:51:22;;;;;;;24.05;4.57;;;29.60;70.00;;;;;;4972494;28;20031;-68
2022/06/22 13:54:04;;;;;;;18.85;4.20;;;29.70;70.40;;;;;;4975640;28;20026;-68
2022/06/22 13:57:01;;;;;;;14.10;3.20;;;29.70;71.60;;;;;;4972610;28;20037;-67
2022/06/22 13:59:38;;;;;;;18.40;3.95;;;29.60;70.30;;;;;;4975558;28;20022;-68
2022/06/22 14:02:24;;;;;;;13.90;3.58;;;29.20;71.20;;;;;;4975566;28;20319;-67
2022/06/22 14:05:05;;;;;;;15.18;3.33;;;28.60;72.90;;;;;;4972812;28;20063;-68